sensor_id;sensor_type;location;lat;lon;timestamp;pressure;altitude;pressure_sealevel;temperature;humidity
60319;BME280;46163;52.306;5.634;2024-03-08T00:00:08;101866.09;;;1.03;100.00
60319;BME280;46163;52.306;5.634;2024-03-08T00:02:38;101857.88;;;0.97;100.00
60319;BME280;46163;52.306;5.634;2024-03-08T00:05:07;101867.53;;;0.96;100.00
60319;BME280;46163;52.306;5.634;2024-03-08T00:07:37;101858.63;;;0.86;100.00
60319;BME280;46163;52.306;5.634;2024-03-08T00:10:04;101857.81;;;0.85;100.00
60319;BME280;46163;52.306;5.634;2024-03-08T00:12:29;101850.97;;;0.72;100.00
60319;BME280;46163;52.306;5.634;2024-03-08T00:14:55;101848.00;;;0.76;100.00
60319;BME280;46163;52.306;5.634;2024-03-08T00:17:21;101843.56;;;0.66;100.00
60319;BME280;46163;52.306;5.634;2024-03-08T00:19:50;101860.00;;;0.68;100.00
60319;BME280;46163;52.306;5.634;2024-03-08T00:22:16;101848.19;;;0.62;100.00
60319;BME280;46163;52.306;5.634;2024-03-08T00:24:42;101850.41;;;0.55;100.00
60319;BME280;46163;52.306;5.634;2024-03-08T00:27:07;101850.19;;;0.59;100.00
60319;BME280;46163;52.306;5.634;2024-03-08T00:29:34;101855.75;;;0.54;100.00
60319;BME280;46163;52.306;5.634;2024-03-08T00:31:59;101851.00;;;0.59;100.00
60319;BME280;46163;52.306;5.634;2024-03-08T00:34:25;101839.41;;;0.50;100.00
60319;BME280;46163;52.306;5.634;2024-03-08T00:36:50;101840.31;;;0.38;100.00
60319;BME280;46163;52.306;5.634;2024-03-08T00:39:17;101843.81;;;0.50;100.00
60319;BME280;46163;52.306;5.634;2024-03-08T00:41:45;101845.31;;;0.41;100.00
60319;BME280;46163;52.306;5.634;2024-03-08T00:44:10;101836.22;;;0.34;100.00
60319;BME280;46163;52.306;5.634;2024-03-08T00:46:36;101850.56;;;0.41;100.00
60319;BME280;46163;52.306;5.634;2024-03-08T00:49:01;101840.06;;;0.41;100.00
60319;BME280;46163;52.306;5.634;2024-03-08T00:51:26;101836.63;;;0.41;100.00
60319;BME280;46163;52.306;5.634;2024-03-08T00:53:52;101821.25;;;0.36;100.00
60319;BME280;46163;52.306;5.634;2024-03-08T00:56:17;101830.66;;;0.39;100.00
60319;BME280;46163;52.306;5.634;2024-03-08T00:58:43;101832.09;;;0.43;100.00
60319;BME280;46163;52.306;5.634;2024-03-08T01:01:08;101814.56;;;0.32;100.00
60319;BME280;46163;52.306;5.634;2024-03-08T01:03:36;101822.94;;;0.37;100.00
60319;BME280;46163;52.306;5.634;2024-03-08T01:06:01;101819.78;;;0.32;100.00
60319;BME280;46163;52.306;5.634;2024-03-08T01:08:27;101814.78;;;0.29;100.00
60319;BME280;46163;52.306;5.634;2024-03-08T01:10:53;101778.72;;;0.09;100.00
60319;BME280;46163;52.306;5.634;2024-03-08T01:13:18;101805.94;;;0.19;100.00
60319;BME280;46163;52.306;5.634;2024-03-08T01:15:44;101801.41;;;0.21;100.00
60319;BME280;46163;52.306;5.634;2024-03-08T01:18:10;101796.16;;;0.21;100.00
60319;BME280;46163;52.306;5.634;2024-03-08T01:20:36;101799.63;;;0.21;100.00
60319;BME280;46163;52.306;5.634;2024-03-08T01:23:01;101757.72;;;-0.03;100.00
60319;BME280;46163;52.306;5.634;2024-03-08T01:25:26;101781.00;;;0.13;100.00
60319;BME280;46163;52.306;5.634;2024-03-08T01:27:52;101781.00;;;0.13;100.00
60319;BME280;46163;52.306;5.634;2024-03-08T01:30:19;101782.69;;;0.14;100.00
60319;BME280;46163;52.306;5.634;2024-03-08T01:32:44;101767.63;;;0.05;100.00
60319;BME280;46163;52.306;5.634;2024-03-08T01:35:10;101769.00;;;0.11;100.00
60319;BME280;46163;52.306;5.634;2024-03-08T01:37:35;101770.66;;;0.12;100.00
60319;BME280;46163;52.306;5.634;2024-03-08T01:40:01;101760.00;;;0.02;100.00
60319;BME280;46163;52.306;5.634;2024-03-08T01:42:28;101766.91;;;0.03;100.00
60319;BME280;46163;52.306;5.634;2024-03-08T01:44:53;101745.13;;;0.03;100.00
60319;BME280;46163;52.306;5.634;2024-03-08T01:47:19;101748.16;;;0.09;100.00
60319;BME280;46163;52.306;5.634;2024-03-08T01:49:49;101732.88;;;0.03;100.00
60319;BME280;46163;52.306;5.634;2024-03-08T01:52:15;101730.31;;;-0.10;100.00
60319;BME280;46163;52.306;5.634;2024-03-08T01:54:40;101733.38;;;-0.16;100.00
60319;BME280;46163;52.306;5.634;2024-03-08T01:57:06;101735.66;;;-0.11;100.00
60319;BME280;46163;52.306;5.634;2024-03-08T01:59:31;101727.75;;;-0.22;100.00
60319;BME280;46163;52.306;5.634;2024-03-08T02:02:00;101735.66;;;-0.11;100.00
60319;BME280;46163;52.306;5.634;2024-03-08T02:04:27;101732.31;;;-0.13;100.00
60319;BME280;46163;52.306;5.634;2024-03-08T02:06:52;101742.88;;;-0.15;100.00
60319;BME280;46163;52.306;5.634;2024-03-08T02:09:17;101735.91;;;-0.27;100.00
60319;BME280;46163;52.306;5.634;2024-03-08T02:11:43;101717.59;;;-0.27;100.00
60319;BME280;46163;52.306;5.634;2024-03-08T02:14:08;101728.25;;;-0.17;100.00
60319;BME280;46163;52.306;5.634;2024-03-08T02:16:36;101721.78;;;-0.24;100.00
60319;BME280;46163;52.306;5.634;2024-03-08T02:19:02;101732.25;;;-0.24;100.00
60319;BME280;46163;52.306;5.634;2024-03-08T02:21:28;101712.28;;;-0.25;100.00
60319;BME280;46163;52.306;5.634;2024-03-08T02:23:54;101714.38;;;-0.31;100.00
60319;BME280;46163;52.306;5.634;2024-03-08T02:26:20;101715.91;;;-0.28;100.00
60319;BME280;46163;52.306;5.634;2024-03-08T02:28:46;101711.13;;;-0.34;100.00
60319;BME280;46163;52.306;5.634;2024-03-08T02:31:11;101709.44;;;-0.35;100.00
60319;BME280;46163;52.306;5.634;2024-03-08T02:33:37;101707.03;;;-0.25;100.00
60319;BME280;46163;52.306;5.634;2024-03-08T02:36:02;101708.59;;;-0.36;100.00
60319;BME280;46163;52.306;5.634;2024-03-08T02:38:28;101704.72;;;-0.30;100.00
60319;BME280;46163;52.306;5.634;2024-03-08T02:40:54;101688.03;;;-0.40;100.00
60319;BME280;46163;52.306;5.634;2024-03-08T02:43:21;101707.88;;;-0.25;100.00
60319;BME280;46163;52.306;5.634;2024-03-08T02:45:50;101695.94;;;-0.29;100.00
60319;BME280;46163;52.306;5.634;2024-03-08T02:48:15;101681.19;;;-0.30;100.00
60319;BME280;46163;52.306;5.634;2024-03-08T02:50:45;101700.44;;;-0.31;100.00
60319;BME280;46163;52.306;5.634;2024-03-08T02:53:11;101698.44;;;-0.28;100.00
60319;BME280;46163;52.306;5.634;2024-03-08T02:55:41;101689.16;;;-0.32;100.00
60319;BME280;46163;52.306;5.634;2024-03-08T02:58:07;101670.88;;;-0.44;100.00
60319;BME280;46163;52.306;5.634;2024-03-08T03:00:38;101690.59;;;-0.28;100.00
60319;BME280;46163;52.306;5.634;2024-03-08T03:03:04;101675.13;;;-0.31;100.00
60319;BME280;46163;52.306;5.634;2024-03-08T03:05:30;101678.25;;;-0.25;100.00
60319;BME280;46163;52.306;5.634;2024-03-08T03:07:56;101672.75;;;-0.34;100.00
60319;BME280;46163;52.306;5.634;2024-03-08T03:10:23;101651.72;;;-0.45;100.00
60319;BME280;46163;52.306;5.634;2024-03-08T03:12:49;101674.22;;;-0.42;100.00
60319;BME280;46163;52.306;5.634;2024-03-08T03:15:16;101670.97;;;-0.46;100.00
60319;BME280;46163;52.306;5.634;2024-03-08T03:17:48;101669.00;;;-0.42;100.00
60319;BME280;46163;52.306;5.634;2024-03-08T03:20:14;101665.97;;;-0.49;100.00
60319;BME280;46163;52.306;5.634;2024-03-08T03:22:40;101653.22;;;-0.53;100.00
60319;BME280;46163;52.306;5.634;2024-03-08T03:25:07;101659.69;;;-0.46;100.00
60319;BME280;46163;52.306;5.634;2024-03-08T03:27:33;101640.38;;;-0.57;100.00
60319;BME280;46163;52.306;5.634;2024-03-08T03:29:59;101648.63;;;-0.50;100.00
60319;BME280;46163;52.306;5.634;2024-03-08T03:32:44;101650.28;;;-0.49;100.00
60319;BME280;46163;52.306;5.634;2024-03-08T03:35:15;101639.53;;;-0.57;100.00
60319;BME280;46163;52.306;5.634;2024-03-08T03:37:41;101640.66;;;-0.48;100.00
60319;BME280;46163;52.306;5.634;2024-03-08T03:40:16;101640.66;;;-0.48;100.00
60319;BME280;46163;52.306;5.634;2024-03-08T03:42:44;101632.09;;;-0.50;100.00
60319;BME280;46163;52.306;5.634;2024-03-08T03:45:11;101631.69;;;-0.57;100.00
60319;BME280;46163;52.306;5.634;2024-03-08T03:47:36;101629.25;;;-0.47;100.00
60319;BME280;46163;52.306;5.634;2024-03-08T03:50:04;101632.16;;;-0.39;100.00
60319;BME280;46163;52.306;5.634;2024-03-08T03:52:30;101622.88;;;-0.43;100.00
60319;BME280;46163;52.306;5.634;2024-03-08T03:54:55;101623.84;;;-0.57;100.00
60319;BME280;46163;52.306;5.634;2024-03-08T03:57:22;101634.41;;;-0.59;100.00
60319;BME280;46163;52.306;5.634;2024-03-08T03:59:48;101627.81;;;-0.51;100.00
60319;BME280;46163;52.306;5.634;2024-03-08T04:02:13;101626.78;;;-0.62;100.00
60319;BME280;46163;52.306;5.634;2024-03-08T04:04:39;101608.22;;;-0.82;100.00
60319;BME280;46163;52.306;5.634;2024-03-08T04:07:04;101642.03;;;-0.55;100.00
60319;BME280;46163;52.306;5.634;2024-03-08T04:09:30;101622.31;;;-0.72;100.00
60319;BME280;46163;52.306;5.634;2024-03-08T04:11:55;101627.28;;;-0.57;100.00
60319;BME280;46163;52.306;5.634;2024-03-08T04:14:22;101620.50;;;-0.59;100.00
60319;BME280;46163;52.306;5.634;2024-03-08T04:16:48;101612.28;;;-0.66;100.00
60319;BME280;46163;52.306;5.634;2024-03-08T04:19:13;101609.78;;;-0.67;100.00
60319;BME280;46163;52.306;5.634;2024-03-08T04:21:39;101615.41;;;-0.73;100.00
60319;BME280;46163;52.306;5.634;2024-03-08T04:24:04;101607.56;;;-1.10;96.31
60319;BME280;46163;52.306;5.634;2024-03-08T04:26:30;101617.03;;;-0.96;100.00
60319;BME280;46163;52.306;5.634;2024-03-08T04:28:56;101617.91;;;-1.34;98.71
60319;BME280;46163;52.306;5.634;2024-03-08T04:31:21;101618.00;;;-1.10;100.00
60319;BME280;46163;52.306;5.634;2024-03-08T04:33:47;101582.78;;;-1.81;93.73
60319;BME280;46163;52.306;5.634;2024-03-08T04:36:12;101588.69;;;-1.91;98.79
60319;BME280;46163;52.306;5.634;2024-03-08T04:38:39;101628.09;;;-2.09;100.00
60319;BME280;46163;52.306;5.634;2024-03-08T04:41:06;101608.63;;;-2.57;99.44
60319;BME280;46163;52.306;5.634;2024-03-08T04:43:31;101614.28;;;-2.77;96.55
60319;BME280;46163;52.306;5.634;2024-03-08T04:45:57;101615.00;;;-2.07;100.00
60319;BME280;46163;52.306;5.634;2024-03-08T04:48:23;101609.56;;;-1.39;100.00
60319;BME280;46163;52.306;5.634;2024-03-08T04:50:48;101605.13;;;-1.13;100.00
60319;BME280;46163;52.306;5.634;2024-03-08T04:53:14;101600.44;;;-1.08;100.00
60319;BME280;46163;52.306;5.634;2024-03-08T04:55:39;101609.19;;;-0.83;100.00
60319;BME280;46163;52.306;5.634;2024-03-08T04:58:05;101610.19;;;-0.73;100.00
60319;BME280;46163;52.306;5.634;2024-03-08T05:00:33;101590.34;;;-0.89;100.00
60319;BME280;46163;52.306;5.634;2024-03-08T05:02:59;101603.13;;;-0.84;100.00
60319;BME280;46163;52.306;5.634;2024-03-08T05:05:24;101569.00;;;-1.19;100.00
60319;BME280;46163;52.306;5.634;2024-03-08T05:07:51;101596.41;;;-0.88;100.00
60319;BME280;46163;52.306;5.634;2024-03-08T05:10:16;101595.88;;;-0.80;100.00
60319;BME280;46163;52.306;5.634;2024-03-08T05:12:42;101592.25;;;-0.78;100.00
60319;BME280;46163;52.306;5.634;2024-03-08T05:15:08;101602.94;;;-0.94;100.00
60319;BME280;46163;52.306;5.634;2024-03-08T05:17:33;101599.25;;;-0.91;100.00
60319;BME280;46163;52.306;5.634;2024-03-08T05:19:59;101593.47;;;-1.20;100.00
60319;BME280;46163;52.306;5.634;2024-03-08T05:22:24;101580.41;;;-1.58;100.00
60319;BME280;46163;52.306;5.634;2024-03-08T05:24:51;101591.63;;;-1.83;98.85
60319;BME280;46163;52.306;5.634;2024-03-08T05:27:16;101595.88;;;-2.35;92.86
60319;BME280;46163;52.306;5.634;2024-03-08T05:29:42;101589.94;;;-2.64;91.25
60319;BME280;46163;52.306;5.634;2024-03-08T05:32:07;101583.69;;;-3.31;91.63
60319;BME280;46163;52.306;5.634;2024-03-08T05:34:33;101591.56;;;-3.61;93.45
60319;BME280;46163;52.306;5.634;2024-03-08T05:36:58;101596.28;;;-4.12;96.23
60319;BME280;46163;52.306;5.634;2024-03-08T05:39:25;101610.91;;;-4.88;95.47
60319;BME280;46163;52.306;5.634;2024-03-08T05:41:52;101610.78;;;-4.08;100.00
60319;BME280;46163;52.306;5.634;2024-03-08T05:44:18;101595.22;;;-2.92;100.00
60319;BME280;46163;52.306;5.634;2024-03-08T05:46:43;101602.09;;;-2.23;100.00
60319;BME280;46163;52.306;5.634;2024-03-08T05:49:09;101596.41;;;-2.03;100.00
60319;BME280;46163;52.306;5.634;2024-03-08T05:51:36;101605.13;;;-1.77;100.00
60319;BME280;46163;52.306;5.634;2024-03-08T05:54:02;101601.72;;;-1.64;100.00
60319;BME280;46163;52.306;5.634;2024-03-08T05:56:32;101580.41;;;-1.71;100.00
60319;BME280;46163;52.306;5.634;2024-03-08T05:58:57;101590.22;;;-1.62;100.00
60319;BME280;46163;52.306;5.634;2024-03-08T06:01:26;101592.50;;;-1.57;100.00
60319;BME280;46163;52.306;5.634;2024-03-08T06:03:55;101582.38;;;-1.62;100.00
60319;BME280;46163;52.306;5.634;2024-03-08T06:06:23;101587.34;;;-1.97;100.00
60319;BME280;46163;52.306;5.634;2024-03-08T06:08:49;101564.59;;;-2.35;96.82
60319;BME280;46163;52.306;5.634;2024-03-08T06:11:15;101572.06;;;-2.70;90.56
60319;BME280;46163;52.306;5.634;2024-03-08T06:13:43;101557.94;;;-3.35;89.50
60319;BME280;46163;52.306;5.634;2024-03-08T06:16:08;101559.19;;;-4.00;92.74
60319;BME280;46163;52.306;5.634;2024-03-08T06:18:35;101571.34;;;-5.58;97.49
60319;BME280;46163;52.306;5.634;2024-03-08T06:21:05;101573.72;;;-4.11;100.00
60319;BME280;46163;52.306;5.634;2024-03-08T06:23:34;101558.03;;;-2.67;100.00
60319;BME280;46163;52.306;5.634;2024-03-08T06:26:09;101565.28;;;-2.18;100.00
60319;BME280;46163;52.306;5.634;2024-03-08T06:28:34;101558.78;;;-1.98;100.00
60319;BME280;46163;52.306;5.634;2024-03-08T06:31:01;101552.63;;;-1.85;100.00
60319;BME280;46163;52.306;5.634;2024-03-08T06:33:27;101543.31;;;-1.76;100.00
60319;BME280;46163;52.306;5.634;2024-03-08T06:35:53;101549.19;;;-1.60;100.00
60319;BME280;46163;52.306;5.634;2024-03-08T06:38:19;101543.25;;;-1.62;100.00
60319;BME280;46163;52.306;5.634;2024-03-08T06:40:45;101542.81;;;-1.56;100.00
60319;BME280;46163;52.306;5.634;2024-03-08T06:43:13;101546.38;;;-1.69;99.25
60319;BME280;46163;52.306;5.634;2024-03-08T06:45:44;101557.22;;;-1.50;100.00
60319;BME280;46163;52.306;5.634;2024-03-08T06:48:17;101541.63;;;-2.15;94.60
60319;BME280;46163;52.306;5.634;2024-03-08T06:50:46;101549.91;;;-1.83;100.00
60319;BME280;46163;52.306;5.634;2024-03-08T06:53:13;101541.25;;;-2.90;83.37
60319;BME280;46163;52.306;5.634;2024-03-08T06:55:39;101553.56;;;-3.49;87.26
60319;BME280;46163;52.306;5.634;2024-03-08T06:58:05;101559.00;;;-4.27;86.76
60319;BME280;46163;52.306;5.634;2024-03-08T07:00:32;101529.25;;;-5.30;96.13
60319;BME280;46163;52.306;5.634;2024-03-08T07:02:58;101553.97;;;-3.55;100.00
60319;BME280;46163;52.306;5.634;2024-03-08T07:05:30;101557.59;;;-2.07;100.00
60319;BME280;46163;52.306;5.634;2024-03-08T07:07:56;101533.53;;;-1.47;100.00
60319;BME280;46163;52.306;5.634;2024-03-08T07:10:22;101550.38;;;-1.02;100.00
60319;BME280;46163;52.306;5.634;2024-03-08T07:12:51;101543.28;;;-0.76;100.00
60319;BME280;46163;52.306;5.634;2024-03-08T07:15:17;101524.72;;;-0.84;98.87
60319;BME280;46163;52.306;5.634;2024-03-08T07:17:45;101539.84;;;-0.52;99.02
60319;BME280;46163;52.306;5.634;2024-03-08T07:20:11;101532.50;;;-0.47;98.02
60319;BME280;46163;52.306;5.634;2024-03-08T07:22:39;101542.44;;;-0.29;95.91
60319;BME280;46163;52.306;5.634;2024-03-08T07:25:05;101538.31;;;-0.20;95.29
60319;BME280;46163;52.306;5.634;2024-03-08T07:27:51;101516.97;;;-0.38;92.50
60319;BME280;46163;52.306;5.634;2024-03-08T07:30:19;101528.81;;;-0.10;94.87
60319;BME280;46163;52.306;5.634;2024-03-08T07:33:05;101536.75;;;-0.22;93.08
60319;BME280;46163;52.306;5.634;2024-03-08T07:35:32;101526.56;;;-0.14;92.46
60319;BME280;46163;52.306;5.634;2024-03-08T07:37:57;101529.69;;;-0.68;84.24
60319;BME280;46163;52.306;5.634;2024-03-08T07:40:25;101520.63;;;-0.51;93.38
60319;BME280;46163;52.306;5.634;2024-03-08T07:42:50;101517.59;;;-0.58;89.85
60319;BME280;46163;52.306;5.634;2024-03-08T07:45:16;101474.03;;;-1.18;91.06
60319;BME280;46163;52.306;5.634;2024-03-08T07:47:42;101502.41;;;-1.14;86.73
60319;BME280;46163;52.306;5.634;2024-03-08T07:50:08;101519.75;;;-1.62;81.48
60319;BME280;46163;52.306;5.634;2024-03-08T07:52:35;101511.41;;;-1.80;95.89
60319;BME280;46163;52.306;5.634;2024-03-08T07:55:02;101521.44;;;-0.51;99.26
60319;BME280;46163;52.306;5.634;2024-03-08T07:57:29;101492.03;;;0.49;96.85
60319;BME280;46163;52.306;5.634;2024-03-08T07:59:55;101481.72;;;1.13;91.04
60319;BME280;46163;52.306;5.634;2024-03-08T08:02:21;101493.00;;;1.57;87.96
60319;BME280;46163;52.306;5.634;2024-03-08T08:04:46;101502.44;;;1.49;86.27
60319;BME280;46163;52.306;5.634;2024-03-08T08:07:12;101478.09;;;1.47;86.73
60319;BME280;46163;52.306;5.634;2024-03-08T08:09:38;101489.69;;;1.44;85.32
60319;BME280;46163;52.306;5.634;2024-03-08T08:12:04;101483.94;;;1.50;85.86
60319;BME280;46163;52.306;5.634;2024-03-08T08:14:30;101474.94;;;1.85;85.91
60319;BME280;46163;52.306;5.634;2024-03-08T08:16:56;101473.28;;;1.84;84.84
60319;BME280;46163;52.306;5.634;2024-03-08T08:19:23;101462.41;;;3.09;80.12
60319;BME280;46163;52.306;5.634;2024-03-08T08:21:48;101466.22;;;5.39;72.15
60319;BME280;46163;52.306;5.634;2024-03-08T08:24:14;101456.00;;;7.41;64.75
60319;BME280;46163;52.306;5.634;2024-03-08T08:26:40;101450.88;;;7.47;58.75
60319;BME280;46163;52.306;5.634;2024-03-08T08:29:07;101440.63;;;8.24;60.09
60319;BME280;46163;52.306;5.634;2024-03-08T08:31:33;101450.06;;;8.82;57.82
60319;BME280;46163;52.306;5.634;2024-03-08T08:33:58;101439.91;;;8.55;54.64
60319;BME280;46163;52.306;5.634;2024-03-08T08:36:25;101440.00;;;8.69;56.08
60319;BME280;46163;52.306;5.634;2024-03-08T08:38:50;101436.50;;;8.38;53.09
60319;BME280;46163;52.306;5.634;2024-03-08T08:41:19;101433.34;;;8.34;50.39
60319;BME280;46163;52.306;5.634;2024-03-08T08:43:45;101433.91;;;6.91;57.63
60319;BME280;46163;52.306;5.634;2024-03-08T08:46:10;101441.34;;;5.85;60.16
60319;BME280;46163;52.306;5.634;2024-03-08T08:48:39;101432.44;;;5.43;60.20
60319;BME280;46163;52.306;5.634;2024-03-08T08:51:10;101434.75;;;4.10;54.30
60319;BME280;46163;52.306;5.634;2024-03-08T08:53:41;101444.34;;;1.95;61.31
60319;BME280;46163;52.306;5.634;2024-03-08T08:56:12;101440.97;;;3.33;67.98
60319;BME280;46163;52.306;5.634;2024-03-08T08:58:44;101447.31;;;3.01;71.92
60319;BME280;46163;52.306;5.634;2024-03-08T09:01:09;101441.16;;;2.62;71.83
60319;BME280;46163;52.306;5.634;2024-03-08T09:03:36;101433.91;;;3.33;76.07
60319;BME280;46163;52.306;5.634;2024-03-08T09:06:12;101436.56;;;4.46;81.37
60319;BME280;46163;52.306;5.634;2024-03-08T09:08:41;101421.44;;;4.66;71.55
60319;BME280;46163;52.306;5.634;2024-03-08T09:11:07;101416.53;;;4.53;70.89
60319;BME280;46163;52.306;5.634;2024-03-08T09:13:33;101410.34;;;4.08;72.26
60319;BME280;46163;52.306;5.634;2024-03-08T09:16:04;101412.91;;;5.35;68.40
60319;BME280;46163;52.306;5.634;2024-03-08T09:18:33;101406.13;;;5.77;66.45
60319;BME280;46163;52.306;5.634;2024-03-08T09:20:58;101395.59;;;6.45;61.75
60319;BME280;46163;52.306;5.634;2024-03-08T09:23:25;101388.75;;;8.38;60.26
60319;BME280;46163;52.306;5.634;2024-03-08T09:25:56;101381.38;;;10.66;52.79
60319;BME280;46163;52.306;5.634;2024-03-08T09:28:23;101377.53;;;11.82;49.26
60319;BME280;46163;52.306;5.634;2024-03-08T09:30:49;101360.50;;;11.83;46.76
60319;BME280;46163;52.306;5.634;2024-03-08T09:33:14;101353.25;;;12.66;45.82
60319;BME280;46163;52.306;5.634;2024-03-08T09:35:45;101353.34;;;14.75;43.39
60319;BME280;46163;52.306;5.634;2024-03-08T09:38:12;101339.06;;;14.87;39.47
60319;BME280;46163;52.306;5.634;2024-03-08T09:40:41;101350.44;;;15.64;37.46
60319;BME280;46163;52.306;5.634;2024-03-08T09:43:06;101349.03;;;15.05;37.97
60319;BME280;46163;52.306;5.634;2024-03-08T09:45:36;101342.47;;;12.26;42.26
60319;BME280;46163;52.306;5.634;2024-03-08T09:48:10;101348.59;;;10.44;47.22
60319;BME280;46163;52.306;5.634;2024-03-08T09:50:40;101345.88;;;9.93;50.67
60319;BME280;46163;52.306;5.634;2024-03-08T09:53:06;101341.63;;;9.17;52.01
60319;BME280;46163;52.306;5.634;2024-03-08T09:55:39;101333.31;;;10.53;48.56
60319;BME280;46163;52.306;5.634;2024-03-08T09:58:14;101295.91;;;11.59;47.20
60319;BME280;46163;52.306;5.634;2024-03-08T10:00:46;101318.59;;;13.45;42.59
60319;BME280;46163;52.306;5.634;2024-03-08T10:03:13;101302.56;;;14.61;39.47
60319;BME280;46163;52.306;5.634;2024-03-08T10:05:40;101312.50;;;13.96;40.50
60319;BME280;46163;52.306;5.634;2024-03-08T10:08:06;101325.97;;;10.76;45.66
60319;BME280;46163;52.306;5.634;2024-03-08T10:10:35;101323.00;;;9.99;49.22
60319;BME280;46163;52.306;5.634;2024-03-08T10:13:01;101309.47;;;9.12;51.58
60319;BME280;46163;52.306;5.634;2024-03-08T10:15:27;101315.94;;;8.71;53.67
60319;BME280;46163;52.306;5.634;2024-03-08T10:17:58;101318.16;;;7.81;55.67
60319;BME280;46163;52.306;5.634;2024-03-08T10:20:24;101307.84;;;8.03;55.92
60319;BME280;46163;52.306;5.634;2024-03-08T10:22:52;101308.81;;;8.10;58.44
60319;BME280;46163;52.306;5.634;2024-03-08T10:25:19;101292.00;;;10.57;51.15
60319;BME280;46163;52.306;5.634;2024-03-08T10:27:45;101288.13;;;11.58;47.13
60319;BME280;46163;52.306;5.634;2024-03-08T10:30:13;101274.75;;;12.47;44.47
60319;BME280;46163;52.306;5.634;2024-03-08T10:32:40;101280.56;;;13.04;43.20
60319;BME280;46163;52.306;5.634;2024-03-08T10:35:09;101278.19;;;11.17;46.55
60319;BME280;46163;52.306;5.634;2024-03-08T10:37:44;101286.69;;;10.35;49.01
60319;BME280;46163;52.306;5.634;2024-03-08T10:40:19;101274.28;;;9.47;51.36
60319;BME280;46163;52.306;5.634;2024-03-08T10:42:58;101267.78;;;10.30;50.77
60319;BME280;46163;52.306;5.634;2024-03-08T10:50:32;101250.28;;;11.41;47.79
60319;BME280;46163;52.306;5.634;2024-03-08T10:53:00;101246.63;;;13.11;43.45
60319;BME280;46163;52.306;5.634;2024-03-08T10:55:28;101235.94;;;12.58;43.52
60319;BME280;46163;52.306;5.634;2024-03-08T10:57:54;101229.78;;;10.86;48.56
60319;BME280;46163;52.306;5.634;2024-03-08T11:00:20;101248.25;;;9.13;53.13
60319;BME280;46163;52.306;5.634;2024-03-08T11:02:53;101245.56;;;8.30;57.06
60319;BME280;46163;52.306;5.634;2024-03-08T11:05:38;101246.88;;;8.57;55.33
60319;BME280;46163;52.306;5.634;2024-03-08T11:08:20;101232.34;;;7.90;57.45
60319;BME280;46163;52.306;5.634;2024-03-08T11:10:49;101216.06;;;8.25;56.02
60319;BME280;46163;52.306;5.634;2024-03-08T11:13:39;101211.44;;;7.96;57.12
60319;BME280;46163;52.306;5.634;2024-03-08T11:16:12;101202.88;;;7.46;60.19
60319;BME280;46163;52.306;5.634;2024-03-08T11:18:38;101190.63;;;7.53;61.07
60319;BME280;46163;52.306;5.634;2024-03-08T11:21:12;101184.00;;;7.57;58.78
60319;BME280;46163;52.306;5.634;2024-03-08T11:23:38;101179.88;;;7.47;58.74
60319;BME280;46163;52.306;5.634;2024-03-08T11:26:25;101187.19;;;7.45;58.88
60319;BME280;46163;52.306;5.634;2024-03-08T11:28:51;101171.66;;;7.42;60.37
60319;BME280;46163;52.306;5.634;2024-03-08T11:33:47;101154.69;;;7.59;60.82
60319;BME280;46163;52.306;5.634;2024-03-08T11:36:21;101159.75;;;7.69;60.88
60319;BME280;46163;52.306;5.634;2024-03-08T11:38:48;101170.63;;;7.82;60.42
60319;BME280;46163;52.306;5.634;2024-03-08T11:41:17;101159.91;;;7.98;59.37
60319;BME280;46163;52.306;5.634;2024-03-08T11:43:45;101157.31;;;7.90;59.43
60319;BME280;46163;52.306;5.634;2024-03-08T11:46:12;101149.84;;;7.93;60.35
60319;BME280;46163;52.306;5.634;2024-03-08T11:48:41;101161.06;;;8.27;58.04
60319;BME280;46163;52.306;5.634;2024-03-08T11:51:08;101156.69;;;8.11;58.88
60319;BME280;46163;52.306;5.634;2024-03-08T11:53:34;101144.69;;;8.00;58.14
60319;BME280;46163;52.306;5.634;2024-03-08T11:56:11;101127.94;;;8.00;58.55
60319;BME280;46163;52.306;5.634;2024-03-08T11:58:38;101138.13;;;8.11;59.20
60319;BME280;46163;52.306;5.634;2024-03-08T12:01:06;101126.69;;;7.87;57.74
60319;BME280;46163;52.306;5.634;2024-03-08T12:03:33;101127.81;;;8.16;58.47
60319;BME280;46163;52.306;5.634;2024-03-08T12:06:00;101127.94;;;8.22;57.75
60319;BME280;46163;52.306;5.634;2024-03-08T12:08:27;101120.84;;;8.15;56.09
60319;BME280;46163;52.306;5.634;2024-03-08T12:10:54;101093.38;;;7.93;56.92
60319;BME280;46163;52.306;5.634;2024-03-08T12:13:26;101104.75;;;8.02;57.78
60319;BME280;46163;52.306;5.634;2024-03-08T12:15:57;101092.28;;;8.25;57.15
60319;BME280;46163;52.306;5.634;2024-03-08T12:18:26;101087.25;;;8.30;56.62
60319;BME280;46163;52.306;5.634;2024-03-08T12:21:12;101070.50;;;8.15;57.74
60319;BME280;46163;52.306;5.634;2024-03-08T12:23:45;101076.44;;;8.40;58.16
60319;BME280;46163;52.306;5.634;2024-03-08T12:26:15;101079.13;;;8.55;56.63
60319;BME280;46163;52.306;5.634;2024-03-08T12:28:45;101072.16;;;8.54;56.13
60319;BME280;46163;52.306;5.634;2024-03-08T12:31:14;101069.50;;;8.54;55.49
60319;BME280;46163;52.306;5.634;2024-03-08T12:33:53;101051.56;;;8.41;55.23
60319;BME280;46163;52.306;5.634;2024-03-08T12:36:20;101048.28;;;8.68;54.70
60319;BME280;46163;52.306;5.634;2024-03-08T12:38:46;101059.44;;;8.64;55.79
60319;BME280;46163;52.306;5.634;2024-03-08T12:41:14;101051.50;;;8.64;55.34
60319;BME280;46163;52.306;5.634;2024-03-08T12:43:39;101026.41;;;8.81;54.16
60319;BME280;46163;52.306;5.634;2024-03-08T12:46:05;101042.16;;;8.83;55.09
60319;BME280;46163;52.306;5.634;2024-03-08T12:48:37;101046.81;;;8.81;53.77
60319;BME280;46163;52.306;5.634;2024-03-08T12:51:06;101047.28;;;8.84;55.60
60319;BME280;46163;52.306;5.634;2024-03-08T12:53:32;101019.28;;;8.82;54.03
60319;BME280;46163;52.306;5.634;2024-03-08T12:55:58;101021.84;;;8.90;53.21
60319;BME280;46163;52.306;5.634;2024-03-08T12:58:24;101017.97;;;8.92;53.95